<?xml version="1.0" encoding="UTF-8" standalone="no" ?>
<gpx xmlns="http://www.topografix.com/GPX/1/1" xmlns:xsi="http://www.w3.org/2001/XMLSchema-instance" xsi:schemaLocation="http://www.topografix.com/GPX/1/1 http://www.topografix.com/GPX/1/1/gpx.xsd" version="1.1" creator="VisuGPX - https://www.visugpx.com">
  <metadata>
    <name>Tour de Purgerot</name>
    <desc><![CDATA[contrairement aux indications, ce tour n\'a pas encore été effectué]]></desc>
  </metadata>
  <trk>
    <name><![CDATA[Purgerot on GPSies.com]]></name>
    <trkseg>
      <trkpt lat="47.73949" lon="6.00127">
        <ele>280</ele>
        <time>2010-01-01T00:00:00Z</time>
      </trkpt>
      <trkpt lat="47.74065" lon="6.00262">
        <ele>290</ele>
        <time>2010-01-01T00:00:58Z</time>
      </trkpt>
      <trkpt lat="47.74153" lon="6.00311">
        <ele>298</ele>
        <time>2010-01-01T00:01:36Z</time>
      </trkpt>
      <trkpt lat="47.74238" lon="6.00237">
        <ele>308</ele>
        <time>2010-01-01T00:02:16Z</time>
      </trkpt>
      <trkpt lat="47.74299" lon="6.00217">
        <ele>316</ele>
        <time>2010-01-01T00:02:41Z</time>
      </trkpt>
      <trkpt lat="47.74408" lon="6.00315">
        <ele>322</ele>
        <time>2010-01-01T00:03:32Z</time>
      </trkpt>
      <trkpt lat="47.74516" lon="6.00364">
        <ele>330</ele>
        <time>2010-01-01T00:04:17Z</time>
      </trkpt>
      <trkpt lat="47.74554" lon="6.00413">
        <ele>330</ele>
        <time>2010-01-01T00:04:37Z</time>
      </trkpt>
      <trkpt lat="47.7465" lon="6.00368">
        <ele>325</ele>
        <time>2010-01-01T00:05:17Z</time>
      </trkpt>
      <trkpt lat="47.74631" lon="6.00061">
        <ele>334</ele>
        <time>2010-01-01T00:06:40Z</time>
      </trkpt>
      <trkpt lat="47.74612" lon="5.99971">
        <ele>338</ele>
        <time>2010-01-01T00:07:06Z</time>
      </trkpt>
      <trkpt lat="47.7462" lon="5.99906">
        <ele>337</ele>
        <time>2010-01-01T00:07:23Z</time>
      </trkpt>
      <trkpt lat="47.74628" lon="5.99628">
        <ele>339</ele>
        <time>2010-01-01T00:08:38Z</time>
      </trkpt>
      <trkpt lat="47.74653" lon="5.9953">
        <ele>334</ele>
        <time>2010-01-01T00:09:06Z</time>
      </trkpt>
      <trkpt lat="47.74653" lon="5.99317">
        <ele>336</ele>
        <time>2010-01-01T00:10:04Z</time>
      </trkpt>
      <trkpt lat="47.7465" lon="5.99223">
        <ele>338</ele>
        <time>2010-01-01T00:10:29Z</time>
      </trkpt>
      <trkpt lat="47.74681" lon="5.99101">
        <ele>342</ele>
        <time>2010-01-01T00:11:04Z</time>
      </trkpt>
      <trkpt lat="47.74692" lon="5.99015">
        <ele>343</ele>
        <time>2010-01-01T00:11:28Z</time>
      </trkpt>
      <trkpt lat="47.74637" lon="5.98696">
        <ele>358</ele>
        <time>2010-01-01T00:12:56Z</time>
      </trkpt>
      <trkpt lat="47.74458" lon="5.98157">
        <ele>339</ele>
        <time>2010-01-01T00:15:38Z</time>
      </trkpt>
      <trkpt lat="47.74353" lon="5.97997">
        <ele>337</ele>
        <time>2010-01-01T00:16:38Z</time>
      </trkpt>
      <trkpt lat="47.74389" lon="5.97895">
        <ele>319</ele>
        <time>2010-01-01T00:17:09Z</time>
      </trkpt>
      <trkpt lat="47.74535" lon="5.97948">
        <ele>308</ele>
        <time>2010-01-01T00:18:10Z</time>
      </trkpt>
      <trkpt lat="47.74499" lon="5.97711">
        <ele>308</ele>
        <time>2010-01-01T00:19:15Z</time>
      </trkpt>
      <trkpt lat="47.74538" lon="5.97605">
        <ele>308</ele>
        <time>2010-01-01T00:19:47Z</time>
      </trkpt>
      <trkpt lat="47.7459" lon="5.97527">
        <ele>307</ele>
        <time>2010-01-01T00:20:17Z</time>
      </trkpt>
      <trkpt lat="47.74958" lon="5.97588">
        <ele>316</ele>
        <time>2010-01-01T00:22:45Z</time>
      </trkpt>
      <trkpt lat="47.7499" lon="5.97714">
        <ele>310</ele>
        <time>2010-01-01T00:23:22Z</time>
      </trkpt>
      <trkpt lat="47.75015" lon="5.97865">
        <ele>294</ele>
        <time>2010-01-01T00:24:03Z</time>
      </trkpt>
      <trkpt lat="47.75067" lon="5.97963">
        <ele>291</ele>
        <time>2010-01-01T00:24:37Z</time>
      </trkpt>
      <trkpt lat="47.75111" lon="5.98057">
        <ele>285</ele>
        <time>2010-01-01T00:25:08Z</time>
      </trkpt>
      <trkpt lat="47.75117" lon="5.98163">
        <ele>266</ele>
        <time>2010-01-01T00:25:36Z</time>
      </trkpt>
      <trkpt lat="47.75202" lon="5.98106">
        <ele>277</ele>
        <time>2010-01-01T00:26:14Z</time>
      </trkpt>
      <trkpt lat="47.7526" lon="5.98106">
        <ele>277</ele>
        <time>2010-01-01T00:26:37Z</time>
      </trkpt>
      <trkpt lat="47.75394" lon="5.98339">
        <ele>278</ele>
        <time>2010-01-01T00:27:59Z</time>
      </trkpt>
      <trkpt lat="47.75441" lon="5.98576">
        <ele>291</ele>
        <time>2010-01-01T00:29:06Z</time>
      </trkpt>
      <trkpt lat="47.75447" lon="5.98736">
        <ele>286</ele>
        <time>2010-01-01T00:29:49Z</time>
      </trkpt>
      <trkpt lat="47.75545" lon="5.99418">
        <ele>283</ele>
        <time>2010-01-01T00:32:57Z</time>
      </trkpt>
      <trkpt lat="47.75513" lon="5.99533">
        <ele>269</ele>
        <time>2010-01-01T00:33:30Z</time>
      </trkpt>
      <trkpt lat="47.75469" lon="5.99479">
        <ele>264</ele>
        <time>2010-01-01T00:33:53Z</time>
      </trkpt>
      <trkpt lat="47.75447" lon="5.99586">
        <ele>254</ele>
        <time>2010-01-01T00:34:23Z</time>
      </trkpt>
      <trkpt lat="47.75447" lon="5.99753">
        <ele>243</ele>
        <time>2010-01-01T00:35:08Z</time>
      </trkpt>
      <trkpt lat="47.75394" lon="5.99778">
        <ele>237</ele>
        <time>2010-01-01T00:35:30Z</time>
      </trkpt>
      <trkpt lat="47.75089" lon="5.99864">
        <ele>233</ele>
        <time>2010-01-01T00:37:35Z</time>
      </trkpt>
      <trkpt lat="47.75095" lon="5.99933">
        <ele>232</ele>
        <time>2010-01-01T00:37:53Z</time>
      </trkpt>
      <trkpt lat="47.75076" lon="6.00027">
        <ele>233</ele>
        <time>2010-01-01T00:38:20Z</time>
      </trkpt>
      <trkpt lat="47.75095" lon="6.00203">
        <ele>231</ele>
        <time>2010-01-01T00:39:08Z</time>
      </trkpt>
      <trkpt lat="47.75023" lon="6.00281">
        <ele>238</ele>
        <time>2010-01-01T00:39:43Z</time>
      </trkpt>
      <trkpt lat="47.74988" lon="6.00526">
        <ele>235</ele>
        <time>2010-01-01T00:40:51Z</time>
      </trkpt>
      <trkpt lat="47.75155" lon="6.01098">
        <ele>219</ele>
        <time>2010-01-01T00:43:39Z</time>
      </trkpt>
      <trkpt lat="47.75131" lon="6.01355">
        <ele>224</ele>
        <time>2010-01-01T00:44:49Z</time>
      </trkpt>
      <trkpt lat="47.75158" lon="6.01719">
        <ele>222</ele>
        <time>2010-01-01T00:46:27Z</time>
      </trkpt>
      <trkpt lat="47.7521" lon="6.01993">
        <ele>216</ele>
        <time>2010-01-01T00:47:44Z</time>
      </trkpt>
      <trkpt lat="47.75309" lon="6.02091">
        <ele>216</ele>
        <time>2010-01-01T00:48:31Z</time>
      </trkpt>
      <trkpt lat="47.75353" lon="6.02206">
        <ele>218</ele>
        <time>2010-01-01T00:49:07Z</time>
      </trkpt>
      <trkpt lat="47.75389" lon="6.02295">
        <ele>216</ele>
        <time>2010-01-01T00:49:35Z</time>
      </trkpt>
      <trkpt lat="47.75392" lon="6.02761">
        <ele>210</ele>
        <time>2010-01-01T00:51:40Z</time>
      </trkpt>
      <trkpt lat="47.75216" lon="6.02921">
        <ele>211</ele>
        <time>2010-01-01T00:53:03Z</time>
      </trkpt>
      <trkpt lat="47.74699" lon="6.02884">
        <ele>217</ele>
        <time>2010-01-01T00:56:30Z</time>
      </trkpt>
      <trkpt lat="47.7452" lon="6.02921">
        <ele>213</ele>
        <time>2010-01-01T00:57:42Z</time>
      </trkpt>
      <trkpt lat="47.74485" lon="6.02774">
        <ele>216</ele>
        <time>2010-01-01T00:58:24Z</time>
      </trkpt>
      <trkpt lat="47.74306" lon="6.02549">
        <ele>222</ele>
        <time>2010-01-01T00:59:58Z</time>
      </trkpt>
      <trkpt lat="47.74213" lon="6.02471">
        <ele>219</ele>
        <time>2010-01-01T01:00:41Z</time>
      </trkpt>
      <trkpt lat="47.74158" lon="6.02312">
        <ele>220</ele>
        <time>2010-01-01T01:01:29Z</time>
      </trkpt>
      <trkpt lat="47.74023" lon="6.02222">
        <ele>219</ele>
        <time>2010-01-01T01:02:28Z</time>
      </trkpt>
      <trkpt lat="47.73936" lon="6.02522">
        <ele>214</ele>
        <time>2010-01-01T01:03:56Z</time>
      </trkpt>
      <trkpt lat="47.73645" lon="6.02759">
        <ele>214</ele>
        <time>2010-01-01T01:06:09Z</time>
      </trkpt>
      <trkpt lat="47.73595" lon="6.03102">
        <ele>216</ele>
        <time>2010-01-01T01:07:44Z</time>
      </trkpt>
      <trkpt lat="47.73609" lon="6.03237">
        <ele>213</ele>
        <time>2010-01-01T01:08:20Z</time>
      </trkpt>
      <trkpt lat="47.73535" lon="6.03323">
        <ele>211</ele>
        <time>2010-01-01T01:08:58Z</time>
      </trkpt>
      <trkpt lat="47.73524" lon="6.03433">
        <ele>210</ele>
        <time>2010-01-01T01:09:28Z</time>
      </trkpt>
      <trkpt lat="47.73425" lon="6.0378">
        <ele>212</ele>
        <time>2010-01-01T01:11:09Z</time>
      </trkpt>
      <trkpt lat="47.73321" lon="6.0394">
        <ele>230</ele>
        <time>2010-01-01T01:12:09Z</time>
      </trkpt>
      <trkpt lat="47.73288" lon="6.0414">
        <ele>225</ele>
        <time>2010-01-01T01:13:05Z</time>
      </trkpt>
      <trkpt lat="47.73359" lon="6.0416">
        <ele>210</ele>
        <time>2010-01-01T01:13:34Z</time>
      </trkpt>
      <trkpt lat="47.73293" lon="6.04475">
        <ele>210</ele>
        <time>2010-01-01T01:15:03Z</time>
      </trkpt>
      <trkpt lat="47.73147" lon="6.04835">
        <ele>212</ele>
        <time>2010-01-01T01:16:56Z</time>
      </trkpt>
      <trkpt lat="47.73114" lon="6.04896">
        <ele>212</ele>
        <time>2010-01-01T01:17:17Z</time>
      </trkpt>
      <trkpt lat="47.73145" lon="6.04962">
        <ele>211</ele>
        <time>2010-01-01T01:17:38Z</time>
      </trkpt>
      <trkpt lat="47.73021" lon="6.05501">
        <ele>212</ele>
        <time>2010-01-01T01:20:12Z</time>
      </trkpt>
      <trkpt lat="47.72969" lon="6.05522">
        <ele>218</ele>
        <time>2010-01-01T01:20:33Z</time>
      </trkpt>
      <trkpt lat="47.7293" lon="6.05734">
        <ele>240</ele>
        <time>2010-01-01T01:21:33Z</time>
      </trkpt>
      <trkpt lat="47.72933" lon="6.0584">
        <ele>242</ele>
        <time>2010-01-01T01:22:01Z</time>
      </trkpt>
      <trkpt lat="47.72908" lon="6.05918">
        <ele>238</ele>
        <time>2010-01-01T01:22:24Z</time>
      </trkpt>
      <trkpt lat="47.72927" lon="6.06012">
        <ele>239</ele>
        <time>2010-01-01T01:22:51Z</time>
      </trkpt>
      <trkpt lat="47.72834" lon="6.06192">
        <ele>242</ele>
        <time>2010-01-01T01:23:52Z</time>
      </trkpt>
      <trkpt lat="47.72804" lon="6.06376">
        <ele>242</ele>
        <time>2010-01-01T01:24:43Z</time>
      </trkpt>
      <trkpt lat="47.72674" lon="6.06372">
        <ele>247</ele>
        <time>2010-01-01T01:25:35Z</time>
      </trkpt>
      <trkpt lat="47.72592" lon="6.06298">
        <ele>252</ele>
        <time>2010-01-01T01:26:13Z</time>
      </trkpt>
      <trkpt lat="47.72405" lon="6.06159">
        <ele>247</ele>
        <time>2010-01-01T01:27:37Z</time>
      </trkpt>
      <trkpt lat="47.72273" lon="6.06147">
        <ele>247</ele>
        <time>2010-01-01T01:28:30Z</time>
      </trkpt>
      <trkpt lat="47.72211" lon="6.0616">
        <ele>243</ele>
        <time>2010-01-01T01:28:55Z</time>
      </trkpt>
      <trkpt lat="47.72021" lon="6.05972">
        <ele>259</ele>
        <time>2010-01-01T01:30:26Z</time>
      </trkpt>
      <trkpt lat="47.71958" lon="6.05935">
        <ele>266</ele>
        <time>2010-01-01T01:30:54Z</time>
      </trkpt>
      <trkpt lat="47.71873" lon="6.05886">
        <ele>267</ele>
        <time>2010-01-01T01:31:30Z</time>
      </trkpt>
      <trkpt lat="47.71826" lon="6.05813">
        <ele>263</ele>
        <time>2010-01-01T01:31:57Z</time>
      </trkpt>
      <trkpt lat="47.71578" lon="6.05743">
        <ele>253</ele>
        <time>2010-01-01T01:33:38Z</time>
      </trkpt>
      <trkpt lat="47.71301" lon="6.05543">
        <ele>270</ele>
        <time>2010-01-01T01:35:42Z</time>
      </trkpt>
      <trkpt lat="47.71199" lon="6.05498">
        <ele>277</ele>
        <time>2010-01-01T01:36:24Z</time>
      </trkpt>
      <trkpt lat="47.71012" lon="6.0551">
        <ele>272</ele>
        <time>2010-01-01T01:37:39Z</time>
      </trkpt>
      <trkpt lat="47.70792" lon="6.05433">
        <ele>258</ele>
        <time>2010-01-01T01:39:10Z</time>
      </trkpt>
      <trkpt lat="47.70603" lon="6.05392">
        <ele>259</ele>
        <time>2010-01-01T01:40:26Z</time>
      </trkpt>
      <trkpt lat="47.70482" lon="6.05339">
        <ele>262</ele>
        <time>2010-01-01T01:41:17Z</time>
      </trkpt>
      <trkpt lat="47.70438" lon="6.05286">
        <ele>261</ele>
        <time>2010-01-01T01:41:39Z</time>
      </trkpt>
      <trkpt lat="47.70268" lon="6.05274">
        <ele>251</ele>
        <time>2010-01-01T01:42:47Z</time>
      </trkpt>
      <trkpt lat="47.70202" lon="6.05298">
        <ele>246</ele>
        <time>2010-01-01T01:43:15Z</time>
      </trkpt>
      <trkpt lat="47.70075" lon="6.0538">
        <ele>246</ele>
        <time>2010-01-01T01:44:10Z</time>
      </trkpt>
      <trkpt lat="47.69905" lon="6.05417">
        <ele>248</ele>
        <time>2010-01-01T01:45:19Z</time>
      </trkpt>
      <trkpt lat="47.69778" lon="6.05445">
        <ele>242</ele>
        <time>2010-01-01T01:46:10Z</time>
      </trkpt>
      <trkpt lat="47.69841" lon="6.05253">
        <ele>251</ele>
        <time>2010-01-01T01:47:08Z</time>
      </trkpt>
      <trkpt lat="47.69935" lon="6.05184">
        <ele>249</ele>
        <time>2010-01-01T01:47:50Z</time>
      </trkpt>
      <trkpt lat="47.69863" lon="6.05098">
        <ele>252</ele>
        <time>2010-01-01T01:48:27Z</time>
      </trkpt>
      <trkpt lat="47.69792" lon="6.04967">
        <ele>251</ele>
        <time>2010-01-01T01:49:12Z</time>
      </trkpt>
      <trkpt lat="47.69679" lon="6.04861">
        <ele>241</ele>
        <time>2010-01-01T01:50:05Z</time>
      </trkpt>
      <trkpt lat="47.69635" lon="6.04771">
        <ele>239</ele>
        <time>2010-01-01T01:50:35Z</time>
      </trkpt>
      <trkpt lat="47.69602" lon="6.04644">
        <ele>234</ele>
        <time>2010-01-01T01:51:12Z</time>
      </trkpt>
      <trkpt lat="47.69602" lon="6.04489">
        <ele>216</ele>
        <time>2010-01-01T01:51:54Z</time>
      </trkpt>
      <trkpt lat="47.69531" lon="6.04473">
        <ele>216</ele>
        <time>2010-01-01T01:52:23Z</time>
      </trkpt>
      <trkpt lat="47.6947" lon="6.04428">
        <ele>214</ele>
        <time>2010-01-01T01:52:50Z</time>
      </trkpt>
      <trkpt lat="47.69172" lon="6.04356">
        <ele>214</ele>
        <time>2010-01-01T01:54:51Z</time>
      </trkpt>
      <trkpt lat="47.68995" lon="6.04335">
        <ele>217</ele>
        <time>2010-01-01T01:56:02Z</time>
      </trkpt>
      <trkpt lat="47.68872" lon="6.04344">
        <ele>219</ele>
        <time>2010-01-01T01:56:51Z</time>
      </trkpt>
      <trkpt lat="47.69094" lon="6.038">
        <ele>208</ele>
        <time>2010-01-01T01:59:43Z</time>
      </trkpt>
      <trkpt lat="47.69147" lon="6.03632">
        <ele>217</ele>
        <time>2010-01-01T02:00:33Z</time>
      </trkpt>
      <trkpt lat="47.69185" lon="6.03665">
        <ele>217</ele>
        <time>2010-01-01T02:00:50Z</time>
      </trkpt>
      <trkpt lat="47.69284" lon="6.03608">
        <ele>228</ele>
        <time>2010-01-01T02:01:33Z</time>
      </trkpt>
      <trkpt lat="47.69455" lon="6.03469">
        <ele>235</ele>
        <time>2010-01-01T02:02:51Z</time>
      </trkpt>
      <trkpt lat="47.69595" lon="6.03207">
        <ele>236</ele>
        <time>2010-01-01T02:04:21Z</time>
      </trkpt>
      <trkpt lat="47.69525" lon="6.02726">
        <ele>239</ele>
        <time>2010-01-01T02:06:33Z</time>
      </trkpt>
      <trkpt lat="47.69575" lon="6.02591">
        <ele>240</ele>
        <time>2010-01-01T02:07:15Z</time>
      </trkpt>
      <trkpt lat="47.69599" lon="6.02448">
        <ele>234</ele>
        <time>2010-01-01T02:07:55Z</time>
      </trkpt>
      <trkpt lat="47.69643" lon="6.0235">
        <ele>234</ele>
        <time>2010-01-01T02:08:26Z</time>
      </trkpt>
      <trkpt lat="47.6986" lon="6.02277">
        <ele>240</ele>
        <time>2010-01-01T02:09:55Z</time>
      </trkpt>
      <trkpt lat="47.69907" lon="6.02138">
        <ele>245</ele>
        <time>2010-01-01T02:10:37Z</time>
      </trkpt>
      <trkpt lat="47.70025" lon="6.01962">
        <ele>245</ele>
        <time>2010-01-01T02:11:44Z</time>
      </trkpt>
      <trkpt lat="47.70097" lon="6.0188">
        <ele>249</ele>
        <time>2010-01-01T02:12:21Z</time>
      </trkpt>
      <trkpt lat="47.7021" lon="6.0184">
        <ele>256</ele>
        <time>2010-01-01T02:13:07Z</time>
      </trkpt>
      <trkpt lat="47.70361" lon="6.01451">
        <ele>253</ele>
        <time>2010-01-01T02:15:08Z</time>
      </trkpt>
      <trkpt lat="47.70114" lon="6.01388">
        <ele>258</ele>
        <time>2010-01-01T02:16:48Z</time>
      </trkpt>
      <trkpt lat="47.69889" lon="6.0102">
        <ele>277</ele>
        <time>2010-01-01T02:19:02Z</time>
      </trkpt>
      <trkpt lat="47.69759" lon="6.00918">
        <ele>282</ele>
        <time>2010-01-01T02:20:01Z</time>
      </trkpt>
      <trkpt lat="47.69773" lon="6.00746">
        <ele>288</ele>
        <time>2010-01-01T02:20:48Z</time>
      </trkpt>
      <trkpt lat="47.69891" lon="6.00452">
        <ele>296</ele>
        <time>2010-01-01T02:22:20Z</time>
      </trkpt>
      <trkpt lat="47.70022" lon="6.00205">
        <ele>302</ele>
        <time>2010-01-01T02:23:45Z</time>
      </trkpt>
      <trkpt lat="47.69766" lon="5.99895">
        <ele>314</ele>
        <time>2010-01-01T02:25:57Z</time>
      </trkpt>
      <trkpt lat="47.69839" lon="5.99819">
        <ele>312</ele>
        <time>2010-01-01T02:26:33Z</time>
      </trkpt>
      <trkpt lat="47.70015" lon="5.99631">
        <ele>300</ele>
        <time>2010-01-01T02:27:59Z</time>
      </trkpt>
      <trkpt lat="47.69897" lon="5.99255">
        <ele>309</ele>
        <time>2010-01-01T02:29:51Z</time>
      </trkpt>
      <trkpt lat="47.698" lon="5.98965">
        <ele>303</ele>
        <time>2010-01-01T02:31:18Z</time>
      </trkpt>
      <trkpt lat="47.7" lon="5.98862">
        <ele>315</ele>
        <time>2010-01-01T02:32:43Z</time>
      </trkpt>
      <trkpt lat="47.70228" lon="5.98817">
        <ele>336</ele>
        <time>2010-01-01T02:34:15Z</time>
      </trkpt>
      <trkpt lat="47.70514" lon="5.98882">
        <ele>342</ele>
        <time>2010-01-01T02:36:11Z</time>
      </trkpt>
      <trkpt lat="47.70618" lon="5.98825">
        <ele>343</ele>
        <time>2010-01-01T02:36:55Z</time>
      </trkpt>
      <trkpt lat="47.70643" lon="5.98911">
        <ele>343</ele>
        <time>2010-01-01T02:37:21Z</time>
      </trkpt>
      <trkpt lat="47.71108" lon="5.99148">
        <ele>326</ele>
        <time>2010-01-01T02:40:37Z</time>
      </trkpt>
      <trkpt lat="47.71168" lon="5.99013">
        <ele>328</ele>
        <time>2010-01-01T02:41:21Z</time>
      </trkpt>
      <trkpt lat="47.71223" lon="5.99136">
        <ele>323</ele>
        <time>2010-01-01T02:42:01Z</time>
      </trkpt>
      <trkpt lat="47.71366" lon="5.9925">
        <ele>311</ele>
        <time>2010-01-01T02:43:06Z</time>
      </trkpt>
      <trkpt lat="47.71424" lon="5.99361">
        <ele>304</ele>
        <time>2010-01-01T02:43:44Z</time>
      </trkpt>
      <trkpt lat="47.71449" lon="5.9945">
        <ele>302</ele>
        <time>2010-01-01T02:44:10Z</time>
      </trkpt>
      <trkpt lat="47.71573" lon="5.99577">
        <ele>304</ele>
        <time>2010-01-01T02:45:10Z</time>
      </trkpt>
      <trkpt lat="47.71738" lon="6.00006">
        <ele>271</ele>
        <time>2010-01-01T02:47:23Z</time>
      </trkpt>
      <trkpt lat="47.71729" lon="6.00126">
        <ele>263</ele>
        <time>2010-01-01T02:47:55Z</time>
      </trkpt>
      <trkpt lat="47.71784" lon="6.00253">
        <ele>256</ele>
        <time>2010-01-01T02:48:36Z</time>
      </trkpt>
      <trkpt lat="47.72005" lon="6.00415">
        <ele>251</ele>
        <time>2010-01-01T02:50:15Z</time>
      </trkpt>
      <trkpt lat="47.72137" lon="6.00386">
        <ele>254</ele>
        <time>2010-01-01T02:51:08Z</time>
      </trkpt>
      <trkpt lat="47.7225" lon="6.00431">
        <ele>256</ele>
        <time>2010-01-01T02:51:55Z</time>
      </trkpt>
      <trkpt lat="47.72368" lon="6.00496">
        <ele>262</ele>
        <time>2010-01-01T02:52:45Z</time>
      </trkpt>
      <trkpt lat="47.7247" lon="6.00451">
        <ele>262</ele>
        <time>2010-01-01T02:53:28Z</time>
      </trkpt>
      <trkpt lat="47.72528" lon="6.00382">
        <ele>261</ele>
        <time>2010-01-01T02:53:58Z</time>
      </trkpt>
      <trkpt lat="47.72781" lon="6.00386">
        <ele>267</ele>
        <time>2010-01-01T02:55:39Z</time>
      </trkpt>
      <trkpt lat="47.7288" lon="6.00439">
        <ele>259</ele>
        <time>2010-01-01T02:56:21Z</time>
      </trkpt>
      <trkpt lat="47.73134" lon="6.00307">
        <ele>258</ele>
        <time>2010-01-01T02:58:09Z</time>
      </trkpt>
      <trkpt lat="47.73181" lon="6.00258">
        <ele>261</ele>
        <time>2010-01-01T02:58:32Z</time>
      </trkpt>
      <trkpt lat="47.73255" lon="6.00254">
        <ele>260</ele>
        <time>2010-01-01T02:59:01Z</time>
      </trkpt>
      <trkpt lat="47.73387" lon="6.00246">
        <ele>261</ele>
        <time>2010-01-01T02:59:54Z</time>
      </trkpt>
      <trkpt lat="47.73528" lon="6.00303">
        <ele>261</ele>
        <time>2010-01-01T03:00:53Z</time>
      </trkpt>
      <trkpt lat="47.73626" lon="6.00274">
        <ele>264</ele>
        <time>2010-01-01T03:01:33Z</time>
      </trkpt>
      <trkpt lat="47.73681" lon="6.00168">
        <ele>270</ele>
        <time>2010-01-01T03:02:09Z</time>
      </trkpt>
      <trkpt lat="47.7372" lon="6.00009">
        <ele>278</ele>
        <time>2010-01-01T03:02:54Z</time>
      </trkpt>
      <trkpt lat="47.73844" lon="6.00066">
        <ele>274</ele>
        <time>2010-01-01T03:03:46Z</time>
      </trkpt>
      <trkpt lat="47.7395" lon="6.00128">
        <ele>280</ele>
        <time>2010-01-01T03:04:32Z</time>
      </trkpt>
    </trkseg>
  </trk>
</gpx>